sensor_id;sensor_type;location;lat;lon;timestamp;pressure;altitude;pressure_sealevel;temperature;humidity
706;BME280;21234;48.690;9.016;2023-05-01T00:00:50;96066.19;;;10.47;77.83
706;BME280;21234;48.690;9.016;2023-05-01T00:03:17;96065.59;;;10.66;78.25
706;BME280;21234;48.690;9.016;2023-05-01T00:05:44;96064.47;;;10.62;77.46
706;BME280;21234;48.690;9.016;2023-05-01T00:08:12;96056.00;;;10.59;77.77
706;BME280;21234;48.690;9.016;2023-05-01T00:10:38;96058.28;;;10.45;78.46
706;BME280;21234;48.690;9.016;2023-05-01T00:13:06;96054.28;;;10.53;78.64
706;BME280;21234;48.690;9.016;2023-05-01T00:15:34;96058.28;;;10.45;78.58
706;BME280;21234;48.690;9.016;2023-05-01T00:18:01;96050.25;;;10.55;78.52
706;BME280;21234;48.690;9.016;2023-05-01T00:20:28;96048.03;;;10.52;78.71
706;BME280;21234;48.690;9.016;2023-05-01T00:22:55;96042.16;;;10.17;79.73
706;BME280;21234;48.690;9.016;2023-05-01T00:25:22;96047.88;;;10.37;79.44
706;BME280;21234;48.690;9.016;2023-05-01T00:27:49;96041.81;;;10.30;79.86
706;BME280;21234;48.690;9.016;2023-05-01T00:30:17;96050.72;;;10.25;80.41
706;BME280;21234;48.690;9.016;2023-05-01T00:32:44;96040.38;;;10.22;81.22
706;BME280;21234;48.690;9.016;2023-05-01T00:35:10;96031.97;;;10.24;79.61
706;BME280;21234;48.690;9.016;2023-05-01T00:37:37;96030.66;;;10.09;79.91
706;BME280;21234;48.690;9.016;2023-05-01T00:40:05;96027.94;;;10.09;80.41
706;BME280;21234;48.690;9.016;2023-05-01T00:42:35;96030.63;;;10.04;80.46
706;BME280;21234;48.690;9.016;2023-05-01T00:45:04;96028.75;;;10.27;80.08
706;BME280;21234;48.690;9.016;2023-05-01T00:47:34;96022.31;;;10.16;80.85
706;BME280;21234;48.690;9.016;2023-05-01T00:50:01;96021.34;;;10.00;81.12
706;BME280;21234;48.690;9.016;2023-05-01T00:52:28;96015.06;;;10.00;81.85
706;BME280;21234;48.690;9.016;2023-05-01T00:54:55;96010.97;;;9.97;82.94
706;BME280;21234;48.690;9.016;2023-05-01T00:57:22;96014.44;;;9.93;82.38
706;BME280;21234;48.690;9.016;2023-05-01T00:59:49;96011.47;;;9.94;82.41
706;BME280;21234;48.690;9.016;2023-05-01T01:02:16;96005.09;;;10.05;83.50
706;BME280;21234;48.690;9.016;2023-05-01T01:04:45;96002.19;;;10.34;83.20
706;BME280;21234;48.690;9.016;2023-05-01T01:07:17;95992.41;;;10.33;82.42
706;BME280;21234;48.690;9.016;2023-05-01T01:09:56;95986.84;;;10.23;82.71
706;BME280;21234;48.690;9.016;2023-05-01T01:12:30;95981.16;;;10.02;82.73
706;BME280;21234;48.690;9.016;2023-05-01T01:15:03;95983.06;;;10.02;83.24
706;BME280;21234;48.690;9.016;2023-05-01T01:17:37;95985.03;;;10.06;83.34
706;BME280;21234;48.690;9.016;2023-05-01T01:20:43;95977.16;;;10.10;83.54
706;BME280;21234;48.690;9.016;2023-05-01T01:26:43;95976.25;;;9.99;84.58
706;BME280;21234;48.690;9.016;2023-05-01T01:29:38;95979.47;;;9.96;85.23
706;BME280;21234;48.690;9.016;2023-05-01T01:32:13;95982.25;;;10.01;85.07
706;BME280;21234;48.690;9.016;2023-05-01T01:34:52;95972.75;;;10.04;85.06
706;BME280;21234;48.690;9.016;2023-05-01T01:37:22;95975.50;;;10.09;84.84
706;BME280;21234;48.690;9.016;2023-05-01T01:39:53;95976.59;;;10.08;85.19
706;BME280;21234;48.690;9.016;2023-05-01T01:42:23;95967.94;;;10.11;85.04
706;BME280;21234;48.690;9.016;2023-05-01T01:44:54;95976.81;;;10.01;84.61
706;BME280;21234;48.690;9.016;2023-05-01T01:47:25;95973.78;;;9.98;84.77
706;BME280;21234;48.690;9.016;2023-05-01T01:49:55;95970.75;;;9.94;85.36
706;BME280;21234;48.690;9.016;2023-05-01T01:52:22;95976.88;;;10.06;84.60
706;BME280;21234;48.690;9.016;2023-05-01T01:54:53;95971.06;;;9.98;83.94
706;BME280;21234;48.690;9.016;2023-05-01T01:57:21;95972.88;;;9.92;83.91
706;BME280;21234;48.690;9.016;2023-05-01T01:59:50;95967.38;;;9.87;84.66
706;BME280;21234;48.690;9.016;2023-05-01T02:02:18;95965.75;;;9.86;83.98
706;BME280;21234;48.690;9.016;2023-05-01T02:04:47;95964.94;;;9.86;84.09
706;BME280;21234;48.690;9.016;2023-05-01T02:07:16;95958.94;;;9.84;82.78
706;BME280;21234;48.690;9.016;2023-05-01T02:09:44;95955.38;;;9.83;83.40
706;BME280;21234;48.690;9.016;2023-05-01T02:12:12;95962.03;;;9.70;82.99
706;BME280;21234;48.690;9.016;2023-05-01T02:14:41;95953.91;;;9.70;83.44
706;BME280;21234;48.690;9.016;2023-05-01T02:17:08;95957.47;;;9.76;83.99
706;BME280;21234;48.690;9.016;2023-05-01T02:19:37;95948.78;;;9.74;85.28
706;BME280;21234;48.690;9.016;2023-05-01T02:22:04;95948.81;;;9.79;84.82
706;BME280;21234;48.690;9.016;2023-05-01T02:24:34;95942.22;;;9.70;84.14
706;BME280;21234;48.690;9.016;2023-05-01T02:27:06;95948.47;;;9.70;84.94
706;BME280;21234;48.690;9.016;2023-05-01T02:29:33;95954.88;;;9.86;84.60
706;BME280;21234;48.690;9.016;2023-05-01T02:32:00;95937.47;;;9.82;84.83
706;BME280;21234;48.690;9.016;2023-05-01T02:34:28;95940.56;;;9.91;85.29
706;BME280;21234;48.690;9.016;2023-05-01T02:36:54;95942.88;;;9.82;85.28
706;BME280;21234;48.690;9.016;2023-05-01T02:39:21;95941.13;;;9.93;85.28
706;BME280;21234;48.690;9.016;2023-05-01T02:41:50;95938.53;;;9.81;85.34
706;BME280;21234;48.690;9.016;2023-05-01T02:44:18;95941.47;;;9.74;85.93
706;BME280;21234;48.690;9.016;2023-05-01T02:46:47;95938.59;;;9.86;85.31
706;BME280;21234;48.690;9.016;2023-05-01T02:49:16;95931.34;;;9.92;84.38
706;BME280;21234;48.690;9.016;2023-05-01T02:51:44;95938.97;;;9.95;85.07
706;BME280;21234;48.690;9.016;2023-05-01T02:54:11;95928.38;;;9.93;83.99
706;BME280;21234;48.690;9.016;2023-05-01T02:56:41;95934.63;;;9.94;84.12
706;BME280;21234;48.690;9.016;2023-05-01T02:59:09;95931.84;;;9.89;84.48
706;BME280;21234;48.690;9.016;2023-05-01T03:01:36;95938.22;;;9.99;84.18
706;BME280;21234;48.690;9.016;2023-05-01T03:04:04;95930.91;;;10.00;83.90
706;BME280;21234;48.690;9.016;2023-05-01T03:06:31;95931.22;;;9.82;83.99
706;BME280;21234;48.690;9.016;2023-05-01T03:08:57;95918.66;;;9.97;84.89
706;BME280;21234;48.690;9.016;2023-05-01T03:11:24;95921.34;;;10.19;84.14
706;BME280;21234;48.690;9.016;2023-05-01T03:13:51;95917.16;;;10.33;83.67
706;BME280;21234;48.690;9.016;2023-05-01T03:16:19;95918.47;;;10.09;84.01
706;BME280;21234;48.690;9.016;2023-05-01T03:18:46;95915.25;;;10.12;84.37
706;BME280;21234;48.690;9.016;2023-05-01T03:21:12;95914.75;;;10.15;84.31
706;BME280;21234;48.690;9.016;2023-05-01T03:23:39;95912.72;;;10.00;84.63
706;BME280;21234;48.690;9.016;2023-05-01T03:26:06;95916.63;;;9.88;84.99
706;BME280;21234;48.690;9.016;2023-05-01T03:28:32;95909.31;;;9.88;86.06
706;BME280;21234;48.690;9.016;2023-05-01T03:30:59;95906.66;;;9.93;85.62
706;BME280;21234;48.690;9.016;2023-05-01T03:33:27;95909.94;;;9.95;85.33
706;BME280;21234;48.690;9.016;2023-05-01T03:36:00;95902.75;;;9.84;85.86
706;BME280;21234;48.690;9.016;2023-05-01T03:38:29;95901.34;;;10.03;86.32
706;BME280;21234;48.690;9.016;2023-05-01T03:40:56;95904.38;;;10.07;85.58
706;BME280;21234;48.690;9.016;2023-05-01T03:43:23;95897.06;;;9.86;86.35
706;BME280;21234;48.690;9.016;2023-05-01T03:45:49;95894.16;;;9.92;87.56
706;BME280;21234;48.690;9.016;2023-05-01T03:48:16;95891.63;;;10.13;86.62
706;BME280;21234;48.690;9.016;2023-05-01T03:50:44;95892.41;;;10.08;87.22
706;BME280;21234;48.690;9.016;2023-05-01T03:53:12;95891.13;;;10.16;86.52
706;BME280;21234;48.690;9.016;2023-05-01T03:55:38;95884.00;;;10.09;86.13
706;BME280;21234;48.690;9.016;2023-05-01T03:58:05;95888.97;;;9.91;86.93
706;BME280;21234;48.690;9.016;2023-05-01T04:00:32;95885.19;;;9.92;87.39
706;BME280;21234;48.690;9.016;2023-05-01T04:02:59;95885.25;;;9.97;87.80
706;BME280;21234;48.690;9.016;2023-05-01T04:05:26;95889.47;;;10.15;86.73
706;BME280;21234;48.690;9.016;2023-05-01T04:07:54;95887.94;;;9.97;87.28
706;BME280;21234;48.690;9.016;2023-05-01T04:10:20;95885.38;;;10.12;87.22
706;BME280;21234;48.690;9.016;2023-05-01T04:12:47;95887.44;;;10.00;87.46
706;BME280;21234;48.690;9.016;2023-05-01T04:15:14;95882.28;;;9.98;88.19
706;BME280;21234;48.690;9.016;2023-05-01T04:17:41;95889.31;;;10.21;87.34
706;BME280;21234;48.690;9.016;2023-05-01T04:20:09;95889.56;;;10.20;87.26
706;BME280;21234;48.690;9.016;2023-05-01T04:22:36;95889.41;;;10.31;86.21
706;BME280;21234;48.690;9.016;2023-05-01T04:25:05;95890.78;;;10.07;86.35
706;BME280;21234;48.690;9.016;2023-05-01T04:27:33;95890.47;;;10.03;86.82
706;BME280;21234;48.690;9.016;2023-05-01T04:29:59;95893.06;;;9.93;88.01
706;BME280;21234;48.690;9.016;2023-05-01T04:32:26;95889.66;;;10.03;88.30
706;BME280;21234;48.690;9.016;2023-05-01T04:34:53;95888.22;;;9.95;89.02
706;BME280;21234;48.690;9.016;2023-05-01T04:37:19;95893.19;;;10.03;88.58
706;BME280;21234;48.690;9.016;2023-05-01T04:39:46;95895.56;;;10.22;87.97
706;BME280;21234;48.690;9.016;2023-05-01T04:42:14;95893.19;;;10.03;88.67
706;BME280;21234;48.690;9.016;2023-05-01T04:44:41;95893.75;;;10.05;88.25
706;BME280;21234;48.690;9.016;2023-05-01T04:47:08;95898.50;;;9.93;88.94
706;BME280;21234;48.690;9.016;2023-05-01T04:49:35;95898.13;;;10.11;89.40
706;BME280;21234;48.690;9.016;2023-05-01T04:52:01;95889.38;;;10.26;90.23
706;BME280;21234;48.690;9.016;2023-05-01T04:54:28;95898.69;;;10.14;90.76
706;BME280;21234;48.690;9.016;2023-05-01T04:56:55;95896.00;;;10.14;90.66
706;BME280;21234;48.690;9.016;2023-05-01T04:59:23;95897.63;;;10.15;92.44
706;BME280;21234;48.690;9.016;2023-05-01T05:01:49;95895.34;;;10.01;92.13
706;BME280;21234;48.690;9.016;2023-05-01T05:04:16;95890.50;;;10.08;93.39
706;BME280;21234;48.690;9.016;2023-05-01T05:06:43;95896.69;;;10.26;94.03
706;BME280;21234;48.690;9.016;2023-05-01T05:09:09;95904.31;;;10.02;92.87
706;BME280;21234;48.690;9.016;2023-05-01T05:11:36;95895.16;;;9.86;93.31
706;BME280;21234;48.690;9.016;2023-05-01T05:14:03;95902.63;;;9.74;94.63
706;BME280;21234;48.690;9.016;2023-05-01T05:16:31;95901.66;;;9.85;95.43
706;BME280;21234;48.690;9.016;2023-05-01T05:18:58;95898.03;;;9.74;93.69
706;BME280;21234;48.690;9.016;2023-05-01T05:21:25;95905.53;;;9.67;95.17
706;BME280;21234;48.690;9.016;2023-05-01T05:23:53;95906.13;;;9.69;95.29
706;BME280;21234;48.690;9.016;2023-05-01T05:26:20;95912.97;;;9.77;96.50
706;BME280;21234;48.690;9.016;2023-05-01T05:28:47;95900.84;;;9.85;97.55
706;BME280;21234;48.690;9.016;2023-05-01T05:31:13;95905.84;;;9.71;96.22
706;BME280;21234;48.690;9.016;2023-05-01T05:33:41;95908.34;;;9.77;98.22
706;BME280;21234;48.690;9.016;2023-05-01T05:36:09;95906.47;;;9.78;99.04
706;BME280;21234;48.690;9.016;2023-05-01T05:38:35;95903.16;;;9.98;98.48
706;BME280;21234;48.690;9.016;2023-05-01T05:41:03;95903.81;;;10.10;97.81
706;BME280;21234;48.690;9.016;2023-05-01T05:43:29;95903.56;;;10.11;97.44
706;BME280;21234;48.690;9.016;2023-05-01T05:45:56;95904.44;;;9.90;97.11
706;BME280;21234;48.690;9.016;2023-05-01T05:48:23;95904.94;;;9.87;99.53
706;BME280;21234;48.690;9.016;2023-05-01T05:50:51;95901.72;;;9.90;98.13
706;BME280;21234;48.690;9.016;2023-05-01T05:53:18;95903.31;;;9.86;97.80
706;BME280;21234;48.690;9.016;2023-05-01T05:55:45;95911.88;;;10.00;96.08
706;BME280;21234;48.690;9.016;2023-05-01T05:58:13;95905.50;;;9.89;95.18
706;BME280;21234;48.690;9.016;2023-05-01T06:00:44;95905.63;;;9.99;96.34
706;BME280;21234;48.690;9.016;2023-05-01T06:03:11;95905.13;;;10.02;95.61
706;BME280;21234;48.690;9.016;2023-05-01T06:05:38;95903.88;;;10.15;97.31
706;BME280;21234;48.690;9.016;2023-05-01T06:08:06;95904.13;;;10.35;97.84
706;BME280;21234;48.690;9.016;2023-05-01T06:10:34;95900.28;;;10.31;95.75
706;BME280;21234;48.690;9.016;2023-05-01T06:13:01;95903.91;;;10.42;96.01
706;BME280;21234;48.690;9.016;2023-05-01T06:15:28;95908.25;;;10.43;94.32
706;BME280;21234;48.690;9.016;2023-05-01T06:17:55;95896.81;;;10.41;94.84
706;BME280;21234;48.690;9.016;2023-05-01T06:20:22;95900.84;;;10.33;94.73
706;BME280;21234;48.690;9.016;2023-05-01T06:22:48;95901.63;;;10.29;92.87
706;BME280;21234;48.690;9.016;2023-05-01T06:25:17;95906.78;;;10.30;93.38
706;BME280;21234;48.690;9.016;2023-05-01T06:27:43;95903.19;;;10.25;89.55
706;BME280;21234;48.690;9.016;2023-05-01T06:30:10;95893.81;;;10.37;91.60
706;BME280;21234;48.690;9.016;2023-05-01T06:32:37;95886.00;;;10.46;92.60
706;BME280;21234;48.690;9.016;2023-05-01T06:35:07;95901.41;;;10.35;85.86
706;BME280;21234;48.690;9.016;2023-05-01T06:37:33;95908.50;;;10.36;86.07
706;BME280;21234;48.690;9.016;2023-05-01T06:40:00;95915.81;;;10.36;86.07
706;BME280;21234;48.690;9.016;2023-05-01T06:42:28;95914.75;;;10.42;88.54
706;BME280;21234;48.690;9.016;2023-05-01T06:44:55;95915.03;;;10.40;90.11
706;BME280;21234;48.690;9.016;2023-05-01T06:47:22;95921.13;;;10.53;90.10
706;BME280;21234;48.690;9.016;2023-05-01T06:49:48;95915.69;;;10.53;91.29
706;BME280;21234;48.690;9.016;2023-05-01T06:52:15;95924.97;;;10.57;90.85
706;BME280;21234;48.690;9.016;2023-05-01T06:54:42;95917.38;;;10.59;92.21
706;BME280;21234;48.690;9.016;2023-05-01T06:57:09;95926.72;;;10.68;91.49
706;BME280;21234;48.690;9.016;2023-05-01T06:59:37;95922.66;;;10.70;90.09
706;BME280;21234;48.690;9.016;2023-05-01T07:02:04;95923.75;;;10.74;91.55
706;BME280;21234;48.690;9.016;2023-05-01T07:04:31;95919.53;;;10.89;93.05
706;BME280;21234;48.690;9.016;2023-05-01T07:06:57;95928.03;;;10.97;93.04
706;BME280;21234;48.690;9.016;2023-05-01T07:09:25;95934.03;;;10.99;92.26
706;BME280;21234;48.690;9.016;2023-05-01T07:11:52;95931.31;;;10.99;91.27
706;BME280;21234;48.690;9.016;2023-05-01T07:14:21;95918.47;;;10.95;88.61
706;BME280;21234;48.690;9.016;2023-05-01T07:16:49;95927.00;;;10.71;88.20
706;BME280;21234;48.690;9.016;2023-05-01T07:19:16;95930.25;;;10.73;89.15
706;BME280;21234;48.690;9.016;2023-05-01T07:21:42;95924.66;;;10.85;92.75
706;BME280;21234;48.690;9.016;2023-05-01T07:24:09;95917.34;;;10.91;88.78
706;BME280;21234;48.690;9.016;2023-05-01T07:26:36;95925.81;;;10.94;87.72
706;BME280;21234;48.690;9.016;2023-05-01T07:29:03;95916.88;;;10.99;89.49
706;BME280;21234;48.690;9.016;2023-05-01T07:31:30;95915.28;;;11.08;90.16
706;BME280;21234;48.690;9.016;2023-05-01T07:33:58;95906.94;;;11.20;88.22
706;BME280;21234;48.690;9.016;2023-05-01T07:36:25;95911.53;;;11.14;88.09
706;BME280;21234;48.690;9.016;2023-05-01T07:38:52;95916.16;;;11.14;89.98
706;BME280;21234;48.690;9.016;2023-05-01T07:41:19;95911.50;;;11.09;89.15
706;BME280;21234;48.690;9.016;2023-05-01T07:43:46;95917.50;;;11.11;88.38
706;BME280;21234;48.690;9.016;2023-05-01T07:46:17;95914.78;;;11.11;87.63
706;BME280;21234;48.690;9.016;2023-05-01T07:48:43;95912.34;;;11.15;90.77
706;BME280;21234;48.690;9.016;2023-05-01T07:51:12;95911.03;;;11.22;88.36
706;BME280;21234;48.690;9.016;2023-05-01T07:53:39;95914.91;;;11.31;88.79
706;BME280;21234;48.690;9.016;2023-05-01T07:56:07;95909.41;;;11.21;89.13
706;BME280;21234;48.690;9.016;2023-05-01T07:58:34;95906.50;;;11.33;89.10
706;BME280;21234;48.690;9.016;2023-05-01T08:01:02;95910.03;;;11.38;89.99
706;BME280;21234;48.690;9.016;2023-05-01T08:03:29;95915.25;;;11.45;89.92
706;BME280;21234;48.690;9.016;2023-05-01T08:05:55;95909.00;;;11.50;91.30
706;BME280;21234;48.690;9.016;2023-05-01T08:08:24;95903.34;;;11.56;89.44
706;BME280;21234;48.690;9.016;2023-05-01T08:10:52;95911.53;;;11.61;87.81
706;BME280;21234;48.690;9.016;2023-05-01T08:13:18;95915.09;;;11.72;88.41
706;BME280;21234;48.690;9.016;2023-05-01T08:15:46;95907.00;;;11.82;87.81
706;BME280;21234;48.690;9.016;2023-05-01T08:18:13;95918.78;;;11.93;84.96
706;BME280;21234;48.690;9.016;2023-05-01T08:20:44;95909.78;;;12.02;85.12
706;BME280;21234;48.690;9.016;2023-05-01T08:23:12;95912.25;;;12.04;85.31
706;BME280;21234;48.690;9.016;2023-05-01T08:25:41;95910.63;;;12.03;85.11
706;BME280;21234;48.690;9.016;2023-05-01T08:28:09;95903.84;;;12.16;82.99
706;BME280;21234;48.690;9.016;2023-05-01T08:30:36;95908.25;;;12.27;83.82
706;BME280;21234;48.690;9.016;2023-05-01T08:33:02;95905.25;;;12.38;82.41
706;BME280;21234;48.690;9.016;2023-05-01T08:35:29;95901.19;;;12.56;79.96
706;BME280;21234;48.690;9.016;2023-05-01T08:37:56;95900.66;;;12.59;81.10
706;BME280;21234;48.690;9.016;2023-05-01T08:40:24;95901.47;;;12.75;79.05
706;BME280;21234;48.690;9.016;2023-05-01T08:42:53;95902.56;;;12.84;81.19
706;BME280;21234;48.690;9.016;2023-05-01T08:45:22;95899.56;;;12.96;79.73
706;BME280;21234;48.690;9.016;2023-05-01T08:47:51;95895.75;;;12.87;78.58
706;BME280;21234;48.690;9.016;2023-05-01T08:50:18;95901.72;;;13.04;78.06
706;BME280;21234;48.690;9.016;2023-05-01T08:52:45;95909.91;;;13.04;78.34
706;BME280;21234;48.690;9.016;2023-05-01T08:55:14;95904.16;;;13.05;77.51
706;BME280;21234;48.690;9.016;2023-05-01T08:57:44;95904.44;;;13.14;76.57
706;BME280;21234;48.690;9.016;2023-05-01T09:00:16;95908.53;;;13.11;75.33
706;BME280;21234;48.690;9.016;2023-05-01T09:02:45;95906.34;;;13.08;73.98
706;BME280;21234;48.690;9.016;2023-05-01T09:05:12;95906.94;;;13.26;78.93
706;BME280;21234;48.690;9.016;2023-05-01T09:07:39;95904.44;;;13.34;74.49
706;BME280;21234;48.690;9.016;2023-05-01T09:10:07;95906.06;;;13.40;72.33
706;BME280;21234;48.690;9.016;2023-05-01T09:12:33;95906.31;;;13.54;72.18
706;BME280;21234;48.690;9.016;2023-05-01T09:15:06;95909.78;;;13.70;71.18
706;BME280;21234;48.690;9.016;2023-05-01T09:17:41;95906.19;;;13.90;70.60
706;BME280;21234;48.690;9.016;2023-05-01T09:20:09;95908.34;;;13.93;73.04
706;BME280;21234;48.690;9.016;2023-05-01T09:22:36;95908.31;;;13.98;74.88
706;BME280;21234;48.690;9.016;2023-05-01T09:25:03;95905.03;;;14.01;71.86
706;BME280;21234;48.690;9.016;2023-05-01T09:27:33;95904.91;;;14.26;68.89
706;BME280;21234;48.690;9.016;2023-05-01T09:30:00;95904.84;;;14.31;66.43
706;BME280;21234;48.690;9.016;2023-05-01T09:32:27;95907.56;;;14.41;67.18
706;BME280;21234;48.690;9.016;2023-05-01T09:35:08;95900.47;;;14.35;65.57
706;BME280;21234;48.690;9.016;2023-05-01T09:37:36;95894.19;;;14.30;68.16
706;BME280;21234;48.690;9.016;2023-05-01T09:40:04;95902.47;;;14.20;65.07
706;BME280;21234;48.690;9.016;2023-05-01T09:42:31;95899.75;;;14.20;65.75
706;BME280;21234;48.690;9.016;2023-05-01T09:44:59;95905.50;;;14.18;66.09
706;BME280;21234;48.690;9.016;2023-05-01T09:47:26;95904.34;;;14.29;65.82
706;BME280;21234;48.690;9.016;2023-05-01T09:49:55;95897.97;;;14.39;64.49
706;BME280;21234;48.690;9.016;2023-05-01T09:52:25;95904.75;;;14.57;65.86
706;BME280;21234;48.690;9.016;2023-05-01T09:55:10;95889.84;;;14.73;65.49
706;BME280;21234;48.690;9.016;2023-05-01T09:57:38;95907.63;;;14.70;63.17
706;BME280;21234;48.690;9.016;2023-05-01T10:00:05;95896.59;;;14.86;63.87
706;BME280;21234;48.690;9.016;2023-05-01T10:02:33;95906.13;;;14.93;62.94
706;BME280;21234;48.690;9.016;2023-05-01T10:05:01;95902.63;;;14.83;63.46
706;BME280;21234;48.690;9.016;2023-05-01T10:07:28;95900.47;;;14.79;61.30
706;BME280;21234;48.690;9.016;2023-05-01T10:09:56;95906.44;;;14.87;62.55
706;BME280;21234;48.690;9.016;2023-05-01T10:12:23;95900.44;;;14.85;61.74
706;BME280;21234;48.690;9.016;2023-05-01T10:14:51;95900.69;;;14.88;65.39
706;BME280;21234;48.690;9.016;2023-05-01T10:17:18;95895.00;;;14.79;64.42
706;BME280;21234;48.690;9.016;2023-05-01T10:19:45;95898.53;;;14.80;65.69
706;BME280;21234;48.690;9.016;2023-05-01T10:22:13;95905.72;;;14.71;66.18
706;BME280;21234;48.690;9.016;2023-05-01T10:24:41;95905.50;;;14.62;64.17
706;BME280;21234;48.690;9.016;2023-05-01T10:27:08;95898.88;;;14.73;63.95
706;BME280;21234;48.690;9.016;2023-05-01T10:29:36;95896.09;;;14.78;67.48
706;BME280;21234;48.690;9.016;2023-05-01T10:32:04;95905.03;;;14.89;62.75
706;BME280;21234;48.690;9.016;2023-05-01T10:34:34;95903.78;;;14.76;60.20
706;BME280;21234;48.690;9.016;2023-05-01T10:37:08;95900.25;;;14.71;62.88
706;BME280;21234;48.690;9.016;2023-05-01T10:39:38;95908.78;;;14.64;64.21
706;BME280;21234;48.690;9.016;2023-05-01T10:42:06;95901.09;;;14.66;62.13
706;BME280;21234;48.690;9.016;2023-05-01T10:44:35;95908.47;;;14.71;62.83
706;BME280;21234;48.690;9.016;2023-05-01T10:50:08;95896.56;;;14.52;66.28
706;BME280;21234;48.690;9.016;2023-05-01T10:55:43;95898.00;;;14.34;67.08
706;BME280;21234;48.690;9.016;2023-05-01T10:58:10;95896.72;;;14.21;66.13
706;BME280;21234;48.690;9.016;2023-05-01T11:00:37;95894.28;;;14.20;67.23
706;BME280;21234;48.690;9.016;2023-05-01T11:03:35;95900.31;;;14.17;66.72
706;BME280;21234;48.690;9.016;2023-05-01T11:06:06;95893.47;;;14.14;70.02
706;BME280;21234;48.690;9.016;2023-05-01T11:08:34;95891.34;;;14.06;67.12
706;BME280;21234;48.690;9.016;2023-05-01T11:14:07;95890.31;;;13.97;67.46
706;BME280;21234;48.690;9.016;2023-05-01T11:16:42;95892.53;;;13.90;68.44
706;BME280;21234;48.690;9.016;2023-05-01T11:19:42;95889.00;;;13.84;70.50
706;BME280;21234;48.690;9.016;2023-05-01T11:21:58;95890.09;;;13.78;68.66
706;BME280;21234;48.690;9.016;2023-05-01T11:24:30;95887.09;;;13.74;70.29
706;BME280;21234;48.690;9.016;2023-05-01T11:26:58;95880.56;;;13.70;70.23
706;BME280;21234;48.690;9.016;2023-05-01T11:29:30;95886.59;;;13.67;69.85
706;BME280;21234;48.690;9.016;2023-05-01T11:31:58;95885.75;;;13.72;68.76
706;BME280;21234;48.690;9.016;2023-05-01T11:34:25;95887.69;;;13.66;71.31
706;BME280;21234;48.690;9.016;2023-05-01T11:36:52;95878.16;;;13.64;73.98
706;BME280;21234;48.690;9.016;2023-05-01T11:39:19;95878.97;;;13.64;75.53
706;BME280;21234;48.690;9.016;2023-05-01T11:41:46;95886.34;;;13.64;79.86
706;BME280;21234;48.690;9.016;2023-05-01T11:44:14;95886.38;;;13.59;81.33
706;BME280;21234;48.690;9.016;2023-05-01T11:46:43;95885.81;;;13.57;81.16
706;BME280;21234;48.690;9.016;2023-05-01T11:49:10;95891.28;;;13.52;82.67
706;BME280;21234;48.690;9.016;2023-05-01T11:51:36;95879.28;;;13.48;83.77
706;BME280;21234;48.690;9.016;2023-05-01T11:54:05;95884.22;;;13.45;85.06
706;BME280;21234;48.690;9.016;2023-05-01T11:56:32;95881.47;;;13.45;84.37
706;BME280;21234;48.690;9.016;2023-05-01T11:59:12;95882.81;;;13.53;83.18
706;BME280;21234;48.690;9.016;2023-05-01T12:01:41;95880.91;;;13.59;83.56
706;BME280;21234;48.690;9.016;2023-05-01T12:04:11;95880.84;;;13.69;82.03
706;BME280;21234;48.690;9.016;2023-05-01T12:06:38;95875.34;;;13.79;80.72
706;BME280;21234;48.690;9.016;2023-05-01T12:09:09;95871.47;;;13.90;80.17
706;BME280;21234;48.690;9.016;2023-05-01T12:11:37;95868.38;;;14.07;79.89
706;BME280;21234;48.690;9.016;2023-05-01T12:14:04;95868.31;;;14.17;78.59
706;BME280;21234;48.690;9.016;2023-05-01T12:16:31;95872.38;;;14.25;80.34
706;BME280;21234;48.690;9.016;2023-05-01T12:18:58;95868.56;;;14.21;76.01
706;BME280;21234;48.690;9.016;2023-05-01T12:21:26;95868.59;;;14.16;75.36
706;BME280;21234;48.690;9.016;2023-05-01T12:23:53;95866.47;;;14.07;74.28
706;BME280;21234;48.690;9.016;2023-05-01T12:26:23;95863.75;;;14.02;75.05
706;BME280;21234;48.690;9.016;2023-05-01T12:28:55;95870.63;;;13.95;77.15
706;BME280;21234;48.690;9.016;2023-05-01T12:31:22;95869.84;;;13.89;78.34
706;BME280;21234;48.690;9.016;2023-05-01T12:33:53;95865.19;;;13.90;80.11
706;BME280;21234;48.690;9.016;2023-05-01T12:36:20;95867.13;;;13.84;82.00
706;BME280;21234;48.690;9.016;2023-05-01T12:39:01;95872.88;;;13.77;85.90
706;BME280;21234;48.690;9.016;2023-05-01T12:41:35;95871.00;;;13.68;87.43
706;BME280;21234;48.690;9.016;2023-05-01T12:44:05;95879.25;;;13.58;88.11
706;BME280;21234;48.690;9.016;2023-05-01T12:46:41;95876.53;;;13.53;88.09
706;BME280;21234;48.690;9.016;2023-05-01T12:49:08;95877.38;;;13.48;89.74
706;BME280;21234;48.690;9.016;2023-05-01T12:51:35;95874.66;;;13.48;90.40
706;BME280;21234;48.690;9.016;2023-05-01T12:54:03;95870.00;;;13.49;91.99
706;BME280;21234;48.690;9.016;2023-05-01T12:56:30;95869.75;;;13.45;92.75
706;BME280;21234;48.690;9.016;2023-05-01T12:58:56;95872.47;;;13.40;95.79
706;BME280;21234;48.690;9.016;2023-05-01T13:01:24;95882.34;;;13.26;97.62
706;BME280;21234;48.690;9.016;2023-05-01T13:03:52;95880.44;;;13.11;97.14
706;BME280;21234;48.690;9.016;2023-05-01T13:06:21;95881.81;;;12.78;97.99
706;BME280;21234;48.690;9.016;2023-05-01T13:08:48;95879.66;;;12.65;100.00
706;BME280;21234;48.690;9.016;2023-05-01T13:11:16;95877.75;;;12.50;100.00
706;BME280;21234;48.690;9.016;2023-05-01T13:13:44;95867.66;;;12.51;100.00
706;BME280;21234;48.690;9.016;2023-05-01T13:16:12;95871.75;;;12.48;100.00
706;BME280;21234;48.690;9.016;2023-05-01T13:18:44;95875.28;;;12.43;100.00
706;BME280;21234;48.690;9.016;2023-05-01T13:21:13;95875.28;;;12.33;100.00
706;BME280;21234;48.690;9.016;2023-05-01T13:23:40;95895.72;;;12.46;100.00
706;BME280;21234;48.690;9.016;2023-05-01T13:26:08;95898.19;;;12.58;100.00
706;BME280;21234;48.690;9.016;2023-05-01T13:28:42;95894.63;;;12.47;100.00
706;BME280;21234;48.690;9.016;2023-05-01T13:31:11;95894.63;;;12.37;100.00
706;BME280;21234;48.690;9.016;2023-05-01T13:33:39;95889.97;;;12.27;100.00
706;BME280;21234;48.690;9.016;2023-05-01T13:36:08;95885.56;;;12.06;100.00
706;BME280;21234;48.690;9.016;2023-05-01T13:38:44;95875.75;;;12.05;100.00
706;BME280;21234;48.690;9.016;2023-05-01T13:41:16;95864.03;;;12.04;100.00
706;BME280;21234;48.690;9.016;2023-05-01T13:43:45;95867.31;;;12.11;100.00